createdAt,value
2022-11-12T00:00:30.046Z,98780.94
2022-11-12T00:02:32.641Z,98780.94
2022-11-12T00:04:35.199Z,98777.50
2022-11-12T00:06:37.963Z,98786.13
2022-11-12T00:08:40.584Z,98776.56
2022-11-12T00:10:43.196Z,98780.88
2022-11-12T00:12:45.889Z,98777.47
2022-11-12T00:14:49.810Z,98778.34
2022-11-12T00:16:52.394Z,98775.72
2022-11-12T00:18:55.039Z,98768.78
2022-11-12T00:20:57.847Z,98768.81
2022-11-12T00:23:00.524Z,98761.88
2022-11-12T00:25:03.240Z,98768.78
2022-11-12T00:27:05.874Z,98767.91
2022-11-12T00:29:08.439Z,98766.25
2022-11-12T00:31:13.313Z,98767.13
2022-11-12T00:33:15.893Z,98755.91
2022-11-12T00:35:18.613Z,98755.03
2022-11-12T00:37:23.130Z,98755.91
2022-11-12T00:39:25.837Z,98761.97
2022-11-12T00:41:28.464Z,98758.50
2022-11-12T00:43:31.247Z,98761.94
2022-11-12T00:45:33.840Z,98771.38
2022-11-12T00:47:37.815Z,98762.81
2022-11-12T00:49:40.385Z,98768.00
2022-11-12T00:51:43.507Z,98766.28
2022-11-12T00:53:48.855Z,98765.41
2022-11-12T00:55:51.431Z,98766.28
2022-11-12T00:57:54.023Z,98769.72
2022-11-12T00:59:56.714Z,98773.16
2022-11-12T01:01:59.276Z,98767.06
2022-11-12T01:04:03.324Z,98776.63
2022-11-12T01:06:07.247Z,98769.69
2022-11-12T01:08:09.853Z,98768.88
2022-11-12T01:10:15.620Z,98760.22
2022-11-12T01:12:18.270Z,98769.66
2022-11-12T01:14:20.842Z,98767.06
2022-11-12T01:16:25.541Z,98766.19
2022-11-12T01:18:28.546Z,98760.13
2022-11-12T01:20:32.614Z,98768.78
2022-11-12T01:22:35.257Z,98765.31
2022-11-12T01:24:37.831Z,98758.41
2022-11-12T01:26:41.424Z,98761.84
2022-11-12T01:28:44.730Z,98753.22
2022-11-12T01:30:47.329Z,98747.19
2022-11-12T01:32:49.934Z,98752.38
2022-11-12T01:34:53.278Z,98744.59
2022-11-12T01:36:57.248Z,98740.25
2022-11-12T01:38:59.910Z,98728.16
2022-11-12T01:41:03.184Z,98731.63
2022-11-12T01:43:12.951Z,98734.19
2022-11-12T01:45:16.612Z,98734.19
2022-11-12T01:47:22.441Z,98726.41
2022-11-12T01:49:29.699Z,98725.56
2022-11-12T01:51:35.542Z,98715.22
2022-11-12T01:53:44.031Z,98724.69
2022-11-12T01:55:46.816Z,98719.53
2022-11-12T01:57:54.115Z,98726.44
2022-11-12T02:00:01.858Z,98718.66
2022-11-12T02:02:04.687Z,98722.13
2022-11-12T02:04:07.308Z,98720.41
2022-11-12T02:06:14.550Z,98718.66
2022-11-12T02:08:17.318Z,98716.03
2022-11-12T02:10:22.553Z,98715.16
2022-11-12T02:12:42.458Z,98716.88
2022-11-12T02:14:45.057Z,98711.69
2022-11-12T02:16:49.892Z,98708.22
2022-11-12T02:18:52.541Z,98709.97
2022-11-12T02:20:56.636Z,98709.13
2022-11-12T02:23:00.610Z,98705.69
2022-11-12T02:25:03.263Z,98707.41
2022-11-12T02:27:07.083Z,98704.81
2022-11-12T02:29:09.970Z,98704.00
2022-11-12T02:31:12.563Z,98705.69
2022-11-12T02:33:15.276Z,98710.00
2022-11-12T02:35:18.051Z,98709.16
2022-11-12T02:37:20.649Z,98705.69
2022-11-12T02:39:24.604Z,98703.09
2022-11-12T02:41:27.271Z,98702.22
2022-11-12T02:43:30.008Z,98706.53
2022-11-12T02:45:33.064Z,98702.22
2022-11-12T02:47:35.746Z,98700.47
2022-11-12T02:49:38.332Z,98694.47
2022-11-12T02:51:41.097Z,98703.94
2022-11-12T02:53:43.694Z,98701.28
2022-11-12T02:55:47.638Z,98705.59
2022-11-12T02:57:52.966Z,98697.88
2022-11-12T02:59:55.631Z,98696.16
2022-11-12T03:01:58.233Z,98704.69
2022-11-12T03:04:00.823Z,98704.69
2022-11-12T03:06:03.429Z,98708.16
2022-11-12T03:08:08.171Z,98707.28
2022-11-12T03:10:11.043Z,98697.81
2022-11-12T03:12:15.317Z,98703.88
2022-11-12T03:14:17.978Z,98707.28
2022-11-12T03:16:20.567Z,98707.31
2022-11-12T03:18:23.278Z,98709.88
2022-11-12T03:20:26.169Z,98703.88
2022-11-12T03:22:28.785Z,98704.75
2022-11-12T03:24:31.412Z,98697.81
2022-11-12T03:26:35.944Z,98700.41
2022-11-12T03:28:40.089Z,98694.34
2022-11-12T03:30:44.754Z,98689.16
2022-11-12T03:32:47.368Z,98699.50
2022-11-12T03:34:55.146Z,98703.78
2022-11-12T03:36:58.135Z,98701.22
2022-11-12T03:39:00.781Z,98698.69
2022-11-12T03:41:03.615Z,98690.91
2022-11-12T03:43:06.261Z,98686.59
2022-11-12T03:45:10.437Z,98686.56
2022-11-12T03:47:13.014Z,98687.47
2022-11-12T03:49:15.781Z,98692.63
2022-11-12T03:51:19.086Z,98696.09
2022-11-12T03:53:21.634Z,98692.63
2022-11-12T03:55:25.689Z,98696.94
2022-11-12T03:57:28.262Z,98698.63
2022-11-12T03:59:30.842Z,98708.09
2022-11-12T04:01:34.884Z,98708.09
2022-11-12T04:03:37.544Z,98705.50
2022-11-12T04:05:57.586Z,98705.50
2022-11-12T04:08:18.563Z,98705.50
2022-11-12T04:10:21.168Z,98710.69
2022-11-12T04:12:52.819Z,98703.78
2022-11-12T04:14:55.445Z,98704.59
2022-11-12T04:17:16.792Z,98708.91
2022-11-12T04:19:36.953Z,98709.72
2022-11-12T04:21:55.572Z,98706.28
2022-11-12T04:23:58.163Z,98701.94
2022-11-12T04:26:18.290Z,98704.59
2022-11-12T04:28:20.863Z,98701.09
2022-11-12T04:30:22.494Z,98698.47
2022-11-12T04:32:26.481Z,98699.34
2022-11-12T04:34:32.129Z,98704.53
2022-11-12T04:36:34.717Z,98700.22
2022-11-12T04:38:37.355Z,98696.78
2022-11-12T04:40:57.729Z,98695.88
2022-11-12T04:43:18.369Z,98691.56
2022-11-12T04:45:20.938Z,98691.56
2022-11-12T04:47:23.574Z,98689.81
2022-11-12T04:49:27.687Z,98681.22
2022-11-12T04:51:44.200Z,98694.09
2022-11-12T04:53:46.764Z,98694.09
2022-11-12T04:55:50.908Z,98689.81
2022-11-12T04:58:00.305Z,98682.03
2022-11-12T05:00:03.944Z,98685.47
2022-11-12T05:02:06.512Z,98684.66
2022-11-12T05:04:09.217Z,98682.94
2022-11-12T05:06:27.111Z,98689.00
2022-11-12T05:08:29.738Z,98684.72
2022-11-12T05:10:32.603Z,98686.44
2022-11-12T05:12:35.258Z,98685.59
2022-11-12T05:14:38.128Z,98676.97
2022-11-12T05:16:40.791Z,98679.56
2022-11-12T05:18:43.408Z,98683.91
2022-11-12T05:20:46.009Z,98681.31
2022-11-12T05:23:04.984Z,98683.03
2022-11-12T05:25:10.009Z,98688.22
2022-11-12T05:27:15.090Z,98684.78
2022-11-12T05:29:17.688Z,98678.75
2022-11-12T05:31:20.260Z,98683.91
2022-11-12T05:33:22.847Z,98687.38
2022-11-12T05:35:25.460Z,98682.19
2022-11-12T05:37:28.128Z,98686.50
2022-11-12T05:39:32.040Z,98691.66
2022-11-12T05:41:57.970Z,98694.25
2022-11-12T05:43:57.395Z,98695.13
2022-11-12T05:45:59.968Z,98693.44
2022-11-12T05:48:02.518Z,98689.09
2022-11-12T05:50:05.634Z,98691.69
2022-11-12T05:52:08.263Z,98694.25
2022-11-12T05:54:11.552Z,98702.00
2022-11-12T05:56:15.594Z,98708.00
2022-11-12T05:58:18.175Z,98706.28
2022-11-12T06:00:21.046Z,98710.59
2022-11-12T06:02:23.707Z,98708.81
2022-11-12T06:04:26.334Z,98708.88
2022-11-12T06:06:28.905Z,98717.53
2022-11-12T06:08:31.578Z,98727.88
2022-11-12T06:10:34.685Z,98723.53
2022-11-12T06:12:38.665Z,98721.81
2022-11-12T06:14:41.216Z,98728.75
2022-11-12T06:16:44.876Z,98728.72
2022-11-12T06:18:49.314Z,98727.03
2022-11-12T06:21:05.923Z,98727.91
2022-11-12T06:23:08.623Z,98727.88
2022-11-12T06:25:11.283Z,98727.00
2022-11-12T06:27:13.845Z,98733.88
2022-11-12T06:29:17.766Z,98726.03
2022-11-12T06:31:20.967Z,98729.50
2022-11-12T06:33:23.622Z,98727.72
2022-11-12T06:35:26.458Z,98725.09
2022-11-12T06:37:29.019Z,98725.91
2022-11-12T06:39:31.632Z,98724.22
2022-11-12T06:41:34.227Z,98727.66
2022-11-12T06:43:37.443Z,98722.44
2022-11-12T06:45:41.347Z,98719.84
2022-11-12T06:47:43.923Z,98715.50
2022-11-12T06:49:46.559Z,98718.94
2022-11-12T06:51:51.395Z,98720.66
2022-11-12T06:53:55.191Z,98721.53
2022-11-12T06:56:02.910Z,98729.31
2022-11-12T06:58:05.544Z,98725.84
2022-11-12T07:00:09.560Z,98725.84
2022-11-12T07:02:14.174Z,98721.56
2022-11-12T07:04:16.750Z,98732.78
2022-11-12T07:06:20.471Z,98716.38
2022-11-12T07:08:23.238Z,98716.38
2022-11-12T07:10:25.955Z,98722.44
2022-11-12T07:12:28.585Z,98713.72
2022-11-12T07:14:31.185Z,98713.75
2022-11-12T07:16:34.216Z,98716.31
2022-11-12T07:18:38.487Z,98721.53
2022-11-12T07:20:41.039Z,98724.94
2022-11-12T07:22:43.676Z,98729.22
2022-11-12T07:24:46.308Z,98732.69
2022-11-12T07:26:48.882Z,98734.47
2022-11-12T07:28:53.179Z,98732.81
2022-11-12T07:30:57.506Z,98730.22
2022-11-12T07:33:00.068Z,98734.50
2022-11-12T07:35:04.110Z,98731.88
2022-11-12T07:37:06.677Z,98739.66
2022-11-12T07:39:09.234Z,98734.47
2022-11-12T07:41:14.677Z,98733.63
2022-11-12T07:43:17.254Z,98727.59
2022-11-12T07:45:19.845Z,98726.72
2022-11-12T07:47:22.501Z,98730.19
2022-11-12T07:49:27.152Z,98725.81
2022-11-12T07:51:31.553Z,98732.69
2022-11-12T07:53:34.884Z,98724.13
2022-11-12T07:55:37.564Z,98727.53
2022-11-12T07:57:40.134Z,98730.19
2022-11-12T07:59:46.072Z,98730.09
2022-11-12T08:01:49.171Z,98730.09
2022-11-12T08:03:51.950Z,98730.13
2022-11-12T08:05:54.544Z,98734.47
2022-11-12T08:07:58.613Z,98734.53
2022-11-12T08:10:01.259Z,98728.50
2022-11-12T08:12:03.818Z,98730.28
2022-11-12T08:14:06.609Z,98724.25
2022-11-12T08:16:09.458Z,98725.16
2022-11-12T08:18:12.046Z,98728.63
2022-11-12T08:20:15.152Z,98733.81
2022-11-12T08:22:17.786Z,98725.22
2022-11-12T08:24:21.732Z,98724.31
2022-11-12T08:26:25.812Z,98726.94
2022-11-12T08:28:30.054Z,98722.66
2022-11-12T08:30:32.861Z,98728.69
2022-11-12T08:32:35.512Z,98726.19
2022-11-12T08:34:41.275Z,98733.06
2022-11-12T08:36:43.850Z,98720.13
2022-11-12T08:38:47.047Z,98726.19
2022-11-12T08:40:50.975Z,98721.91
2022-11-12T08:42:58.864Z,98720.19
2022-11-12T08:45:01.424Z,98725.38
2022-11-12T08:47:04.124Z,98722.81
2022-11-12T08:49:06.698Z,98723.69
2022-11-12T08:51:09.379Z,98729.75
2022-11-12T08:53:14.551Z,98725.44
2022-11-12T08:55:17.128Z,98728.91
2022-11-12T08:57:21.186Z,98732.41
2022-11-12T08:59:23.775Z,98729.81
2022-11-12T09:01:26.801Z,98725.53
2022-11-12T09:03:29.461Z,98727.28
2022-11-12T09:05:32.485Z,98725.56
2022-11-12T09:07:49.367Z,98728.19
2022-11-12T09:09:55.232Z,98728.22
2022-11-12T09:11:57.811Z,98725.69
2022-11-12T09:14:01.835Z,98727.44
2022-11-12T09:16:06.167Z,98719.66
2022-11-12T09:18:13.907Z,98718.81
2022-11-12T09:20:16.509Z,98721.41
2022-11-12T09:22:19.179Z,98714.56
2022-11-12T09:24:21.786Z,98707.66
2022-11-12T09:26:24.417Z,98709.41
2022-11-12T09:28:27.488Z,98704.19
2022-11-12T09:30:31.646Z,98705.06
2022-11-12T09:32:34.457Z,98703.34
2022-11-12T09:34:37.116Z,98696.44
2022-11-12T09:36:40.153Z,98701.63
2022-11-12T09:38:42.832Z,98698.19
2022-11-12T09:41:17.063Z,98699.91
2022-11-12T09:43:24.512Z,98699.03
2022-11-12T09:45:31.225Z,98696.47
2022-11-12T09:47:39.198Z,98692.13
2022-11-12T09:49:48.903Z,98697.31
2022-11-12T09:51:54.153Z,98695.59
2022-11-12T09:53:58.713Z,98697.31
2022-11-12T09:56:02.868Z,98697.31
2022-11-12T09:58:10.513Z,98698.22
2022-11-12T10:00:17.574Z,98697.34
2022-11-12T10:02:28.775Z,98685.25
2022-11-12T10:04:59.575Z,98689.56
2022-11-12T10:07:08.206Z,98687.84
2022-11-12T10:09:14.894Z,98680.06
2022-11-12T10:12:07.112Z,98678.34
2022-11-12T10:14:20.909Z,98681.81
2022-11-12T10:16:43.991Z,98680.94
2022-11-12T10:18:56.315Z,98674.88
2022-11-12T10:21:07.250Z,98681.81
2022-11-12T10:23:18.531Z,98675.72
2022-11-12T10:25:21.871Z,98678.34
2022-11-12T10:27:29.009Z,98673.13
2022-11-12T10:29:37.296Z,98676.59
2022-11-12T10:31:40.142Z,98674.84
2022-11-12T10:33:42.821Z,98673.16
2022-11-12T10:35:45.565Z,98675.72
2022-11-12T10:37:52.804Z,98676.59
2022-11-12T10:39:55.779Z,98673.13
2022-11-12T10:42:05.089Z,98673.13
2022-11-12T10:44:14.686Z,98660.16
2022-11-12T10:46:20.793Z,98653.22
2022-11-12T10:48:28.809Z,98657.53
2022-11-12T10:50:37.470Z,98661.88
2022-11-12T10:52:40.139Z,98653.22
2022-11-12T10:54:44.160Z,98648.91
2022-11-12T10:56:47.165Z,98654.94
2022-11-12T10:59:10.790Z,98651.50
2022-11-12T11:01:18.765Z,98656.69
2022-11-12T11:03:24.257Z,98655.81
2022-11-12T11:05:31.638Z,98654.06
2022-11-12T11:07:34.343Z,98648.88
2022-11-12T11:09:36.919Z,98643.72
2022-11-12T11:11:49.846Z,98639.34
2022-11-12T11:13:55.957Z,98646.25
2022-11-12T11:16:01.805Z,98636.75
2022-11-12T11:18:04.654Z,98635.88
2022-11-12T11:20:17.999Z,98630.69
2022-11-12T11:22:30.354Z,98630.66
2022-11-12T11:24:40.732Z,98625.47
2022-11-12T11:26:56.572Z,98636.72
2022-11-12T11:29:07.876Z,98623.72
2022-11-12T11:31:20.438Z,98622.88
2022-11-12T11:33:33.597Z,98629.75
2022-11-12T11:35:50.985Z,98629.75
2022-11-12T11:38:07.002Z,98628.00
2022-11-12T11:40:16.725Z,98627.09
2022-11-12T11:42:42.177Z,98621.91
2022-11-12T11:44:51.492Z,98629.66
2022-11-12T11:47:07.357Z,98616.63
2022-11-12T11:49:29.647Z,98615.75
2022-11-12T11:51:44.582Z,98613.16
2022-11-12T11:53:58.083Z,98617.44
2022-11-12T11:56:04.886Z,98611.41
2022-11-12T11:58:17.331Z,98606.19
2022-11-12T12:00:21.828Z,98603.56
2022-11-12T12:02:45.626Z,98600.06
2022-11-12T12:04:50.758Z,98597.44
2022-11-12T12:07:07.034Z,98594.00
2022-11-12T12:09:24.487Z,98592.22
2022-11-12T12:11:35.510Z,98595.66
2022-11-12T12:13:56.496Z,98588.72
2022-11-12T12:16:23.996Z,98591.28
2022-11-12T12:18:38.467Z,98585.16
2022-11-12T12:20:49.627Z,98580.81
2022-11-12T12:22:58.640Z,98583.44
2022-11-12T12:25:07.081Z,98576.44
2022-11-12T12:27:13.447Z,98579.06
2022-11-12T12:29:23.813Z,98584.22
2022-11-12T12:31:31.186Z,98589.38
2022-11-12T12:33:40.990Z,98585.94
2022-11-12T12:35:53.650Z,98586.75
2022-11-12T12:38:06.969Z,98584.16
2022-11-12T12:40:19.087Z,98582.38
2022-11-12T12:42:27.276Z,98576.28
2022-11-12T12:44:57.673Z,98574.44
2022-11-12T12:47:02.198Z,98568.34
2022-11-12T12:49:07.368Z,98565.72
2022-11-12T12:51:10.765Z,98562.22
2022-11-12T12:53:33.174Z,98558.72
2022-11-12T12:55:39.599Z,98552.63
2022-11-12T12:57:42.306Z,98551.72
2022-11-12T12:59:46.276Z,98547.38
2022-11-12T13:01:57.835Z,98547.41
2022-11-12T13:04:05.008Z,98548.25
2022-11-12T13:06:09.061Z,98553.38
2022-11-12T13:08:14.838Z,98550.78
2022-11-12T13:10:51.536Z,98551.66
2022-11-12T13:13:07.173Z,98545.53
2022-11-12T13:15:16.980Z,98547.25
2022-11-12T13:17:45.859Z,98542.91
2022-11-12T13:20:32.388Z,98538.53
2022-11-12T13:22:51.054Z,98535.91
2022-11-12T13:25:05.894Z,98530.69
2022-11-12T13:27:08.517Z,98528.97
2022-11-12T13:29:41.962Z,98534.16
2022-11-12T13:31:44.595Z,98530.69
2022-11-12T13:33:48.206Z,98532.34
2022-11-12T13:35:50.935Z,98526.28
2022-11-12T13:37:56.284Z,98530.59
2022-11-12T13:40:04.528Z,98524.53
2022-11-12T13:42:32.175Z,98527.06
2022-11-12T13:44:36.299Z,98529.56
2022-11-12T13:46:39.031Z,98532.19
2022-11-12T13:48:44.852Z,98527.84
2022-11-12T13:50:54.017Z,98523.53
2022-11-12T13:52:58.375Z,98520.91
2022-11-12T13:55:08.034Z,98513.97
2022-11-12T13:57:15.422Z,98520.00
2022-11-12T13:59:20.291Z,98516.56
2022-11-12T14:01:25.474Z,98519.16
2022-11-12T14:03:32.202Z,98522.59
2022-11-12T14:05:38.029Z,98513.03
2022-11-12T14:07:50.368Z,98519.09
2022-11-12T14:10:05.183Z,98517.38
2022-11-12T14:12:35.629Z,98509.56
2022-11-12T14:14:53.432Z,98510.44
2022-11-12T14:17:05.795Z,98513.91
2022-11-12T14:19:41.144Z,98517.38
2022-11-12T14:21:43.990Z,98513.94
2022-11-12T14:23:48.830Z,98517.38
2022-11-12T14:25:54.829Z,98509.59
2022-11-12T14:27:57.651Z,98513.06
2022-11-12T14:30:14.878Z,98510.47
2022-11-12T14:32:18.080Z,98507.88
2022-11-12T14:34:21.439Z,98507.88
2022-11-12T14:36:24.715Z,98499.25
2022-11-12T14:38:31.621Z,98501.84
2022-11-12T14:40:36.888Z,98498.41
2022-11-12T14:42:41.113Z,98501.00
2022-11-12T14:44:43.795Z,98501.03
2022-11-12T14:46:51.078Z,98501.03
2022-11-12T14:48:57.324Z,98494.94
2022-11-12T14:51:04.933Z,98490.63
2022-11-12T14:53:13.620Z,98483.69
2022-11-12T14:55:20.005Z,98484.56
2022-11-12T14:57:26.948Z,98488.06
2022-11-12T14:59:32.708Z,98482.88
2022-11-12T15:04:18.173Z,98489.88
2022-11-12T15:06:29.463Z,98491.63
2022-11-12T15:08:34.661Z,98489.03
2022-11-12T15:10:39.160Z,98492.50
2022-11-12T15:12:41.953Z,98496.00
2022-11-12T15:14:46.517Z,98489.06
2022-11-12T15:16:49.444Z,98485.63
2022-11-12T15:19:05.964Z,98473.50
2022-11-12T15:21:15.295Z,98479.59
2022-11-12T15:23:19.657Z,98470.06
2022-11-12T15:25:24.093Z,98471.81
2022-11-12T15:27:36.096Z,98490.03
2022-11-12T15:29:38.707Z,98494.41
2022-11-12T15:31:46.855Z,98477.88
2022-11-12T15:33:49.583Z,98472.72
2022-11-12T15:35:57.699Z,98471.00
2022-11-12T15:38:03.306Z,98477.97
2022-11-12T15:40:12.527Z,98469.31
2022-11-12T15:42:18.475Z,98475.38
2022-11-12T15:44:21.302Z,98465.03
2022-11-12T15:46:24.037Z,98452.06
2022-11-12T15:48:28.064Z,98454.72
2022-11-12T15:50:32.440Z,98456.47
2022-11-12T15:52:35.036Z,98459.09
2022-11-12T15:54:41.074Z,98453.91
2022-11-12T15:56:44.625Z,98454.78
2022-11-12T15:58:47.238Z,98453.06
2022-11-12T16:00:49.941Z,98452.28
2022-11-12T16:02:59.384Z,98449.69
2022-11-12T16:05:03.390Z,98441.03
2022-11-12T16:07:06.989Z,98449.78
2022-11-12T16:09:09.627Z,98442.84
2022-11-12T16:11:33.703Z,98442.03
2022-11-12T16:13:37.534Z,98449.84
2022-11-12T16:15:40.387Z,98455.09
2022-11-12T16:17:43.047Z,98448.19
2022-11-12T16:19:45.705Z,98447.34
2022-11-12T16:21:50.461Z,98438.69
2022-11-12T16:23:53.114Z,98437.84
2022-11-12T16:25:55.885Z,98433.59
2022-11-12T16:28:01.872Z,98433.63
2022-11-12T16:30:05.320Z,98442.34
2022-11-12T16:32:08.051Z,98449.31
2022-11-12T16:34:10.865Z,98446.72
2022-11-12T16:36:15.644Z,98435.50
2022-11-12T16:38:19.902Z,98439.81
2022-11-12T16:40:25.085Z,98439.00
2022-11-12T16:42:27.675Z,98438.13
2022-11-12T16:44:30.315Z,98435.59
2022-11-12T16:46:40.066Z,98435.66
2022-11-12T16:48:42.746Z,98435.66
2022-11-12T16:50:45.430Z,98433.97
2022-11-12T16:52:48.123Z,98434.00
2022-11-12T16:54:52.287Z,98438.34
2022-11-12T16:56:54.947Z,98438.38
2022-11-12T16:58:57.537Z,98432.28
2022-11-12T17:01:00.190Z,98434.97
2022-11-12T17:03:02.788Z,98433.28
2022-11-12T17:05:07.747Z,98433.28
2022-11-12T17:07:10.363Z,98434.16
2022-11-12T17:09:13.266Z,98435.03
2022-11-12T17:11:17.267Z,98434.22
2022-11-12T17:13:19.843Z,98429.91
2022-11-12T17:15:22.446Z,98429.06
2022-11-12T17:17:25.170Z,98426.47
2022-11-12T17:19:27.840Z,98426.53
2022-11-12T17:21:30.939Z,98423.94
2022-11-12T17:23:33.541Z,98428.28
2022-11-12T17:25:36.104Z,98431.72
2022-11-12T17:27:40.031Z,98430.03
2022-11-12T17:29:42.657Z,98430.84
2022-11-12T17:31:48.355Z,98429.16
2022-11-12T17:33:52.226Z,98425.72
2022-11-12T17:35:54.822Z,98428.31
2022-11-12T17:37:57.410Z,98429.19
2022-11-12T17:40:00.023Z,98424.88
2022-11-12T17:42:02.579Z,98419.69
2022-11-12T17:44:07.397Z,98419.69
2022-11-12T17:46:10.919Z,98416.22
2022-11-12T17:48:13.527Z,98411.94
2022-11-12T17:50:16.607Z,98409.31
2022-11-12T17:52:19.205Z,98418.88
2022-11-12T17:54:22.105Z,98421.47
2022-11-12T17:56:25.068Z,98418.88
2022-11-12T17:58:27.707Z,98405.91
2022-11-12T18:00:31.762Z,98408.53
2022-11-12T18:02:34.353Z,98409.41
2022-11-12T18:04:37.121Z,98405.94
2022-11-12T18:06:39.768Z,98405.97
2022-11-12T18:08:43.489Z,98403.38
2022-11-12T18:10:46.094Z,98403.41
2022-11-12T18:12:48.649Z,98403.41
2022-11-12T18:14:51.290Z,98399.13
2022-11-12T18:16:56.870Z,98403.47
2022-11-12T18:18:59.487Z,98404.38
2022-11-12T18:21:02.086Z,98398.31
2022-11-12T18:23:05.004Z,98407.81
2022-11-12T18:25:08.695Z,98397.47
2022-11-12T18:27:11.279Z,98400.06
2022-11-12T18:29:13.941Z,98400.94
2022-11-12T18:31:17.424Z,98392.28
2022-11-12T18:33:21.319Z,98390.56
2022-11-12T18:35:29.498Z,98396.66
2022-11-12T18:37:32.526Z,98394.06
2022-11-12T18:39:35.139Z,98391.47
2022-11-12T18:41:37.723Z,98388.84
2022-11-12T18:43:40.941Z,98389.75
2022-11-12T18:45:54.017Z,98389.75
2022-11-12T18:47:56.598Z,98388.03
2022-11-12T18:50:04.208Z,98385.44
2022-11-12T18:52:10.957Z,98396.69
2022-11-12T18:54:13.809Z,98388.94
2022-11-12T18:56:18.391Z,98388.94
2022-11-12T18:58:20.985Z,98391.53
2022-11-12T19:00:23.789Z,98386.34
2022-11-12T19:02:26.383Z,98383.78
2022-11-12T19:04:29.159Z,98384.63
2022-11-12T19:06:33.351Z,98385.50
2022-11-12T19:08:36.236Z,98379.47
2022-11-12T19:10:38.960Z,98380.34
2022-11-12T19:12:42.438Z,98386.38
2022-11-12T19:14:45.038Z,98382.06
2022-11-12T19:16:47.633Z,98382.06
2022-11-12T19:18:51.668Z,98379.47
2022-11-12T19:21:01.792Z,98377.75
2022-11-12T19:23:05.682Z,98375.16
2022-11-12T19:25:09.606Z,98367.38
2022-11-12T19:27:12.226Z,98369.97
2022-11-12T19:29:14.813Z,98371.69
2022-11-12T19:31:19.465Z,98372.59
2022-11-12T19:33:22.075Z,98369.13
2022-11-12T19:35:24.633Z,98363.94
2022-11-12T19:37:33.420Z,98371.72
2022-11-12T19:39:38.038Z,98368.25
2022-11-12T19:41:40.625Z,98367.44
2022-11-12T19:43:43.629Z,98360.50
2022-11-12T19:45:46.271Z,98358.78
2022-11-12T19:47:51.941Z,98363.94
2022-11-12T19:49:54.535Z,98360.50
2022-11-12T19:51:57.163Z,98368.28
2022-11-12T19:53:59.912Z,98368.28
2022-11-12T19:56:06.595Z,98360.50
2022-11-12T19:58:09.537Z,98365.69
2022-11-12T20:00:13.577Z,98364.81
2022-11-12T20:02:16.481Z,98367.41
2022-11-12T20:04:24.009Z,98357.94
2022-11-12T20:06:28.039Z,98364.84
2022-11-12T20:08:30.825Z,98363.13
2022-11-12T20:10:33.450Z,98363.13
2022-11-12T20:12:40.033Z,98352.75
2022-11-12T20:14:42.672Z,98354.50
2022-11-12T20:16:45.276Z,98354.50
2022-11-12T20:18:50.956Z,98350.19
2022-11-12T20:20:56.182Z,98348.44
2022-11-12T20:22:58.766Z,98356.22
2022-11-12T20:25:01.811Z,98350.16
2022-11-12T20:27:05.621Z,98349.31
2022-11-12T20:29:09.602Z,98349.31
2022-11-12T20:31:14.337Z,98342.41
2022-11-12T20:33:17.174Z,98344.13
2022-11-12T20:35:22.338Z,98345.84
2022-11-12T20:37:25.726Z,98333.78
2022-11-12T20:39:28.320Z,98336.34
2022-11-12T20:41:31.323Z,98338.13
2022-11-12T20:43:34.170Z,98334.63
2022-11-12T20:45:38.163Z,98337.22
2022-11-12T20:47:41.029Z,98332.03
2022-11-12T20:49:43.613Z,98335.50
2022-11-12T20:51:46.221Z,98335.47
2022-11-12T20:53:49.125Z,98332.06
2022-11-12T20:55:51.815Z,98333.78
2022-11-12T20:57:54.381Z,98334.63
2022-11-12T20:59:57.004Z,98326.00
2022-11-12T21:02:01.268Z,98329.44
2022-11-12T21:04:03.930Z,98327.72
2022-11-12T21:06:08.662Z,98331.19
2022-11-12T21:08:11.259Z,98328.63
2022-11-12T21:10:14.141Z,98326.88
2022-11-12T21:12:16.779Z,98321.69
2022-11-12T21:14:19.674Z,98320.00
2022-11-12T21:16:22.373Z,98317.41
2022-11-12T21:18:28.327Z,98318.28
2022-11-12T21:20:31.127Z,98313.09
2022-11-12T21:22:33.715Z,98311.38
2022-11-12T21:24:36.386Z,98304.47
2022-11-12T21:26:39.022Z,98304.47
2022-11-12T21:28:43.604Z,98307.91
2022-11-12T21:30:46.181Z,98295.84
2022-11-12T21:32:48.845Z,98295.84
2022-11-12T21:34:52.807Z,98299.31
2022-11-12T21:36:55.388Z,98295.84
2022-11-12T21:38:58.517Z,98288.09
2022-11-12T21:41:06.027Z,98292.41
2022-11-12T21:43:08.592Z,98291.56
2022-11-12T21:45:12.177Z,98289.84
2022-11-12T21:47:15.290Z,98296.75
2022-11-12T21:49:17.936Z,98285.50
2022-11-12T21:51:23.931Z,98295.84
2022-11-12T21:53:26.550Z,98287.25
2022-11-12T21:55:29.130Z,98287.25
2022-11-12T21:57:31.863Z,98282.94
2022-11-12T21:59:34.666Z,98278.63
2022-11-12T22:01:37.386Z,98276.91
2022-11-12T22:03:40.470Z,98276.88
2022-11-12T22:05:43.112Z,98267.41
2022-11-12T22:07:47.154Z,98275.19
2022-11-12T22:09:55.356Z,98269.16
2022-11-12T22:11:59.329Z,98262.22
2022-11-12T22:14:02.395Z,98269.16
2022-11-12T22:16:06.824Z,98263.97
2022-11-12T22:18:09.476Z,98263.09
2022-11-12T22:20:12.726Z,98261.38
2022-11-12T22:22:15.370Z,98255.38
2022-11-12T22:24:19.347Z,98266.56
2022-11-12T22:26:25.181Z,98261.38
2022-11-12T22:28:28.185Z,98258.78
2022-11-12T22:30:31.009Z,98258.78
2022-11-12T22:32:33.603Z,98259.66
2022-11-12T22:34:36.172Z,98256.22
2022-11-12T22:36:38.816Z,98256.22
2022-11-12T22:38:42.777Z,98253.63
2022-11-12T22:40:46.732Z,98254.47
2022-11-12T22:42:49.299Z,98255.34
2022-11-12T22:44:51.870Z,98257.94
2022-11-12T22:46:54.477Z,98250.19
2022-11-12T22:48:59.142Z,98258.81
2022-11-12T22:51:02.278Z,98244.16
2022-11-12T22:53:04.945Z,98244.16
2022-11-12T22:55:08.087Z,98232.06
2022-11-12T22:57:12.034Z,98229.50
2022-11-12T22:59:14.751Z,98228.66
2022-11-12T23:01:22.659Z,98224.31
2022-11-12T23:03:25.346Z,98232.97
2022-11-12T23:05:27.972Z,98231.25
2022-11-12T23:07:30.641Z,98232.09
2022-11-12T23:09:33.268Z,98225.19
2022-11-12T23:11:38.250Z,98231.22
2022-11-12T23:13:42.351Z,98233.81
2022-11-12T23:15:45.236Z,98231.22
2022-11-12T23:17:47.807Z,98226.91
2022-11-12T23:19:50.416Z,98220.91
2022-11-12T23:21:53.298Z,98226.06
2022-11-12T23:23:57.371Z,98226.06
2022-11-12T23:26:05.184Z,98219.16
2022-11-12T23:28:07.974Z,98228.66
2022-11-12T23:30:13.000Z,98226.91
2022-11-12T23:32:15.651Z,98215.72
2022-11-12T23:34:18.229Z,98220.88
2022-11-12T23:36:24.681Z,98213.13
2022-11-12T23:38:27.546Z,98207.09
2022-11-12T23:40:31.351Z,98207.94
2022-11-12T23:42:34.067Z,98203.66
2022-11-12T23:44:36.615Z,98208.81
2022-11-12T23:46:40.534Z,98207.09
2022-11-12T23:48:43.202Z,98201.03
2022-11-12T23:50:46.618Z,98192.44
2022-11-12T23:52:49.216Z,98192.44
2022-11-12T23:54:51.784Z,98190.69
2022-11-12T23:56:54.357Z,98188.13
2022-11-12T23:58:56.945Z,98187.25
